Meteo Giornale » Osservazioni meteo Stati Uniti (USA) » Youngstown-Warren
ore: 03:51 - Osservazioni Meteo Youngstown-Warren
Lat. 41° 15' N Lon. 80° 40' W Alt. 364 metri s.l.m.
23 °C
Coperto
Temp. 24 Ore
19 °C
29 °C
Sud
11.1 Km/h
Dew point 21 °C
Umidità 88 %
Visibilità 10 Km
Il sole sorge alle ore 06:49
Il sole tramonta alle ore 19:55
| Data e Ora | Cielo e Fenomeni | T °C | DP °C | Um. % | Pres. hPa | Vis. km | Vento km/h | |
|---|---|---|---|---|---|---|---|---|
| Oggi h: 03:51 | Coperto | 23 | 21 | 88 | 1017 | 10 | S 11.1 | |
| Oggi h: 02:51 | Coperto | 23 | 21 | 88 | 1017 | 10 | S 11.1 | |
| Oggi h: 01:51 | Molto Nuvoloso | 23 | 21 | 88 | 1017 | 10 | S 13 | |
| Oggi h: 00:51 | Molto Nuvoloso | 22 | 21 | 94 | 1018 | 10 | N 5.5 | |
| Ieri h: 23:51 | Molto Nuvoloso | 21 | 21 | 100 | 1017 | 10 | N 5.5 | |
| Ieri h: 22:51 | Coperto | 24 | 21 | 83 | 1018 | 10 | N 0 | |
| Ieri h: 21:51 | Coperto | 24 | 21 | 83 | 1017 | 10 | S 9.3 | |
| Ieri h: 20:51 | Coperto | 23 | 22 | 94 | 1018 | 10 | N 0 | |
| Ieri h: 19:51 | Molto Nuvoloso | 25 | 22 | 83 | 1018 | 10 | N 0 | |
| Ieri h: 18:51 | Molto Nuvoloso | 27 | 22 | 74 | 1017 | 10 | SO 7.4 | |
| Ieri h: 17:51 | Molto Nuvoloso | 28 | 21 | 65 | 1018 | 10 | N 5.5 | |
| Ieri h: 16:51 | Molto Nuvoloso | 28 | 21 | 65 | 1018 | 10 | O 13 | |
| Ieri h: 15:51 | Molto Nuvoloso | 29 | 19 | 54 | 1018 | 10 | O 13 | |
| Ieri h: 14:51 | Molto Nuvoloso | 29 | 20 | 58 | 1019 | 10 | O 13 | |
| Ieri h: 13:51 | Coperto | 28 | 20 | 61 | 1019 | 10 | O/SO 13 | |
| Ieri h: 12:51 | Molto Nuvoloso | 28 | 21 | 65 | 1019 | 10 | SO 13 | |
| Ieri h: 11:51 | Molto Nuvoloso | 26 | 21 | 73 | 1019 | 10 | SO 11.1 | |
| Ieri h: 10:51 | Molto Nuvoloso | 24 | 21 | 83 | 1020 | 10 | N 7.4 | |
| Ieri h: 09:51 | Molto Nuvoloso | 21 | 19 | 88 | 1019 | 10 | SE 9.3 | |
| Ieri h: 08:51 | Coperto | 20 | 18 | 88 | 1020 | 10 | E/SE 11.1 | |
| Ieri h: 07:51 | Coperto | 19 | 18 | 93 | 1020 | 10 | E/SE 13 | |
| Ieri h: 06:51 | Coperto | 19 | 18 | 93 | 1019 | 10 | E/SE 7.4 | |
| Ieri h: 05:51 | Coperto | 19 | 18 | 93 | 1019 | 10 | S/SE 11.1 | |
| Ieri h: 04:51 | Coperto | 19 | 18 | 93 | 1019 | 10 | SE 13 | |



